createdAt,value
2023-05-25T00:01:02.739Z,1003.54
2023-05-25T00:01:56.230Z,1003.45
2023-05-25T00:02:54.242Z,1003.51
2023-05-25T00:03:54.100Z,1003.56
2023-05-25T00:04:55.177Z,1003.50
2023-05-25T00:05:54.321Z,1003.50
2023-05-25T00:06:54.040Z,1003.47
2023-05-25T00:07:54.010Z,1003.51
2023-05-25T00:08:54.024Z,1003.48
2023-05-25T00:09:53.988Z,1003.50
2023-05-25T00:10:54.118Z,1003.55
2023-05-25T00:11:54.054Z,1003.49
2023-05-25T00:12:54.097Z,1003.41
2023-05-25T00:13:53.984Z,1003.46
2023-05-25T00:14:54.097Z,1003.47
2023-05-25T00:15:53.969Z,1003.47
2023-05-25T00:16:53.940Z,1003.47
2023-05-25T00:17:53.945Z,1003.51
2023-05-25T00:18:53.977Z,1003.49
2023-05-25T00:19:54.851Z,1003.50
2023-05-25T00:20:53.880Z,1003.47
2023-05-25T00:21:53.832Z,1003.56
2023-05-25T00:22:53.849Z,1003.53
2023-05-25T00:23:53.877Z,1003.47
2023-05-25T00:24:54.223Z,1003.45
2023-05-25T00:25:54.248Z,1003.46
2023-05-25T00:26:53.913Z,1003.46
2023-05-25T00:27:53.864Z,1003.41
2023-05-25T00:28:53.874Z,1003.35
2023-05-25T00:29:53.962Z,1003.44
2023-05-25T00:30:53.884Z,1003.44
2023-05-25T00:31:53.926Z,1003.47
2023-05-25T00:32:53.910Z,1003.45
2023-05-25T00:33:53.814Z,1003.47
2023-05-25T00:34:53.852Z,1003.47
2023-05-25T00:35:53.926Z,1003.44
2023-05-25T00:36:53.912Z,1003.43
2023-05-25T00:37:53.790Z,1003.40
2023-05-25T00:38:53.678Z,1003.32
2023-05-25T00:39:53.730Z,1003.42
2023-05-25T00:40:53.678Z,1003.40
2023-05-25T00:41:53.672Z,1003.39
2023-05-25T00:42:53.644Z,1003.40
2023-05-25T00:43:53.844Z,1003.38
2023-05-25T00:44:53.752Z,1003.35
2023-05-25T00:45:53.627Z,1003.43
2023-05-25T00:46:53.659Z,1003.32
2023-05-25T00:47:53.843Z,1003.35
2023-05-25T00:48:53.802Z,1003.38
2023-05-25T00:49:53.791Z,1003.37
2023-05-25T00:50:53.777Z,1003.43
2023-05-25T00:51:53.744Z,1003.47
2023-05-25T00:52:53.797Z,1003.41
2023-05-25T00:53:53.751Z,1003.39
2023-05-25T00:54:53.759Z,1003.39
2023-05-25T00:55:54.026Z,1003.43
2023-05-25T00:56:53.705Z,1003.46
2023-05-25T00:57:53.790Z,1003.37
2023-05-25T00:58:53.700Z,1003.39
2023-05-25T00:59:53.688Z,1003.42
2023-05-25T01:00:54.031Z,1003.43
2023-05-25T01:01:53.764Z,1003.41
2023-05-25T01:02:53.775Z,1003.45
2023-05-25T01:03:53.787Z,1003.40
2023-05-25T01:04:53.593Z,1003.38
2023-05-25T01:05:53.559Z,1003.42
2023-05-25T01:06:53.573Z,1003.48
2023-05-25T01:07:53.578Z,1003.45
2023-05-25T01:08:53.574Z,1003.50
2023-05-25T01:09:53.821Z,1003.48
2023-05-25T01:10:53.494Z,1003.53
2023-05-25T01:11:53.497Z,1003.50
2023-05-25T01:12:53.462Z,1003.48
2023-05-25T01:13:53.525Z,1003.51
2023-05-25T01:14:53.868Z,1003.45
2023-05-25T01:15:53.464Z,1003.46
2023-05-25T01:16:53.608Z,1003.44
2023-05-25T01:17:53.702Z,1003.46
2023-05-25T01:18:53.647Z,1003.38
2023-05-25T01:20:08.762Z,1003.37
2023-05-25T01:20:55.653Z,1003.33
2023-05-25T01:21:53.584Z,1003.36
2023-05-25T01:22:53.508Z,1003.35
2023-05-25T01:23:53.597Z,1003.34
2023-05-25T01:24:53.614Z,1003.44
2023-05-25T01:25:53.574Z,1003.42
2023-05-25T01:26:53.511Z,1003.34
2023-05-25T01:27:53.594Z,1003.37
2023-05-25T01:28:53.492Z,1003.27
2023-05-25T01:29:53.809Z,1003.32
2023-05-25T01:30:53.478Z,1003.35
2023-05-25T01:31:53.590Z,1003.28
2023-05-25T01:32:53.520Z,1003.27
2023-05-25T01:33:53.442Z,1003.38
2023-05-25T01:34:53.506Z,1003.38
2023-05-25T01:35:53.408Z,1003.39
2023-05-25T01:36:53.464Z,1003.47
2023-05-25T01:37:53.414Z,1003.45
2023-05-25T01:38:53.310Z,1003.45
2023-05-25T01:39:53.288Z,1003.47
2023-05-25T01:40:53.394Z,1003.41
2023-05-25T01:41:53.341Z,1003.42
2023-05-25T01:42:53.247Z,1003.42
2023-05-25T01:43:53.266Z,1003.39
2023-05-25T01:44:53.278Z,1003.35
2023-05-25T01:45:53.343Z,1003.39
2023-05-25T01:46:53.226Z,1003.37
2023-05-25T01:47:54.301Z,1003.35
2023-05-25T01:48:53.242Z,1003.36
2023-05-25T01:49:53.302Z,1003.42
2023-05-25T01:50:53.363Z,1003.44
2023-05-25T01:51:54.369Z,1003.49
2023-05-25T01:52:53.429Z,1003.46
2023-05-25T01:53:53.348Z,1003.50
2023-05-25T01:54:53.565Z,1003.47
2023-05-25T01:55:53.253Z,1003.44
2023-05-25T01:56:53.406Z,1003.48
2023-05-25T01:57:53.242Z,1003.45
2023-05-25T01:58:53.301Z,1003.46
2023-05-25T01:59:53.307Z,1003.45
2023-05-25T02:00:53.238Z,1003.50
2023-05-25T02:01:53.707Z,1003.49
2023-05-25T02:02:53.245Z,1003.44
2023-05-25T02:03:53.247Z,1003.40
2023-05-25T02:04:53.237Z,1003.44
2023-05-25T02:05:53.278Z,1003.44
2023-05-25T02:06:53.222Z,1003.39
2023-05-25T02:07:53.247Z,1003.40
2023-05-25T02:08:53.266Z,1003.50
2023-05-25T02:09:53.207Z,1003.47
2023-05-25T02:10:53.106Z,1003.47
2023-05-25T02:11:53.070Z,1003.42
2023-05-25T02:12:53.109Z,1003.46
2023-05-25T02:13:53.065Z,1003.49
2023-05-25T02:14:53.019Z,1003.43
2023-05-25T02:15:53.942Z,1003.38
2023-05-25T02:16:53.006Z,1003.38
2023-05-25T02:17:54.171Z,1003.38
2023-05-25T02:18:53.068Z,1003.35
2023-05-25T02:19:53.274Z,1003.36
2023-05-25T02:20:54.174Z,1003.36
2023-05-25T02:21:53.100Z,1003.41
2023-05-25T02:22:53.164Z,1003.44
2023-05-25T02:23:53.464Z,1003.42
2023-05-25T02:24:53.074Z,1003.40
2023-05-25T02:25:53.064Z,1003.36
2023-05-25T02:26:53.134Z,1003.36
2023-05-25T02:27:53.105Z,1003.25
2023-05-25T02:28:53.146Z,1003.34
2023-05-25T02:29:53.086Z,1003.33
2023-05-25T02:30:52.985Z,1003.31
2023-05-25T02:31:53.194Z,1003.34
2023-05-25T02:32:53.166Z,1003.37
2023-05-25T02:33:53.278Z,1003.36
2023-05-25T02:34:53.372Z,1003.35
2023-05-25T02:35:53.081Z,1003.37
2023-05-25T02:36:53.085Z,1003.40
2023-05-25T02:37:52.989Z,1003.43
2023-05-25T02:38:53.159Z,1003.39
2023-05-25T02:39:53.330Z,1003.40
2023-05-25T02:40:52.953Z,1003.42
2023-05-25T02:41:53.027Z,1003.40
2023-05-25T02:42:52.924Z,1003.45
2023-05-25T02:43:52.946Z,1003.38
2023-05-25T02:44:53.314Z,1003.49
2023-05-25T02:45:52.952Z,1003.41
2023-05-25T02:46:52.846Z,1003.41
2023-05-25T02:47:52.877Z,1003.41
2023-05-25T02:48:52.814Z,1003.35
2023-05-25T02:49:52.818Z,1003.34
2023-05-25T02:50:52.991Z,1003.30
2023-05-25T02:51:52.959Z,1003.38
2023-05-25T02:52:52.723Z,1003.38
2023-05-25T02:53:52.803Z,1003.32
2023-05-25T02:54:52.863Z,1003.34
2023-05-25T02:55:52.809Z,1003.38
2023-05-25T02:56:52.832Z,1003.38
2023-05-25T02:57:52.885Z,1003.35
2023-05-25T02:58:52.866Z,1003.42
2023-05-25T02:59:53.227Z,1003.40
2023-05-25T03:00:52.878Z,1003.40
2023-05-25T03:01:52.963Z,1003.37
2023-05-25T03:02:52.999Z,1003.36
2023-05-25T03:03:52.874Z,1003.38
2023-05-25T03:04:52.788Z,1003.38
2023-05-25T03:05:52.914Z,1003.36
2023-05-25T03:06:52.860Z,1003.38
2023-05-25T03:07:52.837Z,1003.39
2023-05-25T03:08:52.776Z,1003.39
2023-05-25T03:09:53.158Z,1003.35
2023-05-25T03:10:53.821Z,1003.41
2023-05-25T03:11:52.901Z,1003.40
2023-05-25T03:12:52.748Z,1003.36
2023-05-25T03:13:52.788Z,1003.37
2023-05-25T03:14:52.750Z,1003.43
2023-05-25T03:15:52.693Z,1003.42
2023-05-25T03:16:54.195Z,1003.51
2023-05-25T03:17:53.816Z,1003.51
2023-05-25T03:18:52.756Z,1003.50
2023-05-25T03:19:52.742Z,1003.49
2023-05-25T03:20:52.895Z,1003.49
2023-05-25T03:21:53.036Z,1003.47
2023-05-25T03:22:52.819Z,1003.46
2023-05-25T03:23:52.696Z,1003.49
2023-05-25T03:24:52.765Z,1003.48
2023-05-25T03:25:52.558Z,1003.53
2023-05-25T03:26:52.586Z,1003.52
2023-05-25T03:27:52.575Z,1003.52
2023-05-25T03:28:52.957Z,1003.56
2023-05-25T03:29:52.483Z,1003.50
2023-05-25T03:30:52.641Z,1003.61
2023-05-25T03:31:52.695Z,1003.55
2023-05-25T03:32:52.522Z,1003.60
2023-05-25T03:33:52.522Z,1003.62
2023-05-25T03:34:52.477Z,1003.61
2023-05-25T03:35:52.513Z,1003.55
2023-05-25T03:36:52.848Z,1003.62
2023-05-25T03:37:52.877Z,1003.64
2023-05-25T03:38:52.538Z,1003.63
2023-05-25T03:39:52.666Z,1003.67
2023-05-25T03:40:52.541Z,1003.61
2023-05-25T03:41:52.689Z,1003.64
2023-05-25T03:42:52.721Z,1003.57
2023-05-25T03:43:52.617Z,1003.57
2023-05-25T03:44:52.581Z,1003.66
2023-05-25T03:45:52.645Z,1003.64
2023-05-25T03:46:52.547Z,1003.66
2023-05-25T03:47:52.788Z,1003.64
2023-05-25T03:48:52.783Z,1003.62
2023-05-25T03:49:52.560Z,1003.62
2023-05-25T03:50:52.492Z,1003.66
2023-05-25T03:51:52.496Z,1003.63
2023-05-25T03:52:52.560Z,1003.62
2023-05-25T03:53:52.468Z,1003.61
2023-05-25T03:54:52.456Z,1003.63
2023-05-25T03:55:52.601Z,1003.61
2023-05-25T03:56:52.469Z,1003.68
2023-05-25T03:57:52.391Z,1003.69
2023-05-25T03:58:52.764Z,1003.70
2023-05-25T03:59:52.335Z,1003.75
2023-05-25T04:00:52.330Z,1003.68
2023-05-25T04:01:52.304Z,1003.70
2023-05-25T04:02:52.354Z,1003.73
2023-05-25T04:03:52.433Z,1003.69
2023-05-25T04:04:52.794Z,1003.64
2023-05-25T04:05:53.231Z,1003.69
2023-05-25T04:06:52.421Z,1003.67
2023-05-25T04:07:52.306Z,1003.65
2023-05-25T04:08:52.540Z,1003.72
2023-05-25T04:09:52.361Z,1003.66
2023-05-25T04:10:52.439Z,1003.71
2023-05-25T04:11:52.382Z,1003.60
2023-05-25T04:12:52.390Z,1003.67
2023-05-25T04:13:52.342Z,1003.67
2023-05-25T04:14:52.423Z,1003.74
2023-05-25T04:15:52.263Z,1003.74
2023-05-25T04:16:52.384Z,1003.84
2023-05-25T04:17:52.420Z,1003.74
2023-05-25T04:18:52.308Z,1003.76
2023-05-25T04:19:52.400Z,1003.78
2023-05-25T04:20:52.259Z,1003.82
2023-05-25T04:21:52.290Z,1003.80
2023-05-25T04:22:52.263Z,1003.78
2023-05-25T04:23:52.284Z,1003.80
2023-05-25T04:24:52.311Z,1003.77
2023-05-25T04:25:52.242Z,1003.79
2023-05-25T04:26:52.249Z,1003.78
2023-05-25T04:27:52.352Z,1003.83
2023-05-25T04:28:52.229Z,1003.90
2023-05-25T04:29:52.315Z,1003.92
2023-05-25T04:30:52.126Z,1003.88
2023-05-25T04:31:52.157Z,1003.78
2023-05-25T04:32:52.216Z,1003.81
2023-05-25T04:33:52.113Z,1003.76
2023-05-25T04:34:52.092Z,1003.79
2023-05-25T04:35:52.117Z,1003.79
2023-05-25T04:36:52.012Z,1003.82
2023-05-25T04:37:52.301Z,1003.91
2023-05-25T04:38:52.036Z,1003.90
2023-05-25T04:39:52.050Z,1003.89
2023-05-25T04:40:52.561Z,1003.96
2023-05-25T04:41:52.057Z,1003.94
2023-05-25T04:42:52.153Z,1003.92
2023-05-25T04:44:05.836Z,1003.96
2023-05-25T04:44:54.030Z,1003.96
2023-05-25T04:45:52.264Z,1003.96
2023-05-25T04:46:52.146Z,1004.00
2023-05-25T04:47:52.229Z,1004.05
2023-05-25T04:48:52.149Z,1004.01
2023-05-25T04:49:52.303Z,1003.98
2023-05-25T04:50:52.216Z,1004.03
2023-05-25T04:51:52.212Z,1004.08
2023-05-25T04:52:52.097Z,1004.07
2023-05-25T04:53:52.090Z,1004.08
2023-05-25T04:54:52.145Z,1004.11
2023-05-25T04:55:52.125Z,1004.17
2023-05-25T04:56:52.099Z,1004.18
2023-05-25T04:57:52.031Z,1004.16
2023-05-25T04:58:52.078Z,1004.18
2023-05-25T04:59:52.674Z,1004.16
2023-05-25T05:00:52.709Z,1004.21
2023-05-25T05:01:53.265Z,1004.14
2023-05-25T05:02:51.993Z,1004.26
2023-05-25T05:03:51.923Z,1004.17
2023-05-25T05:04:51.950Z,1004.21
2023-05-25T05:05:51.988Z,1004.19
2023-05-25T05:06:51.992Z,1004.16
2023-05-25T05:07:51.960Z,1004.31
2023-05-25T05:08:51.956Z,1004.26
2023-05-25T05:09:51.962Z,1004.29
2023-05-25T05:10:52.229Z,1004.23
2023-05-25T05:11:51.917Z,1004.30
2023-05-25T05:12:52.015Z,1004.32
2023-05-25T05:13:51.902Z,1004.33
2023-05-25T05:14:51.945Z,1004.39
2023-05-25T05:15:52.360Z,1004.41
2023-05-25T05:16:51.970Z,1004.40
2023-05-25T05:17:52.017Z,1004.43
2023-05-25T05:18:51.995Z,1004.39
2023-05-25T05:19:51.912Z,1004.42
2023-05-25T05:20:51.888Z,1004.46
2023-05-25T05:21:51.890Z,1004.45
2023-05-25T05:22:51.896Z,1004.46
2023-05-25T05:23:52.005Z,1004.49
2023-05-25T05:24:51.885Z,1004.43
2023-05-25T05:25:51.894Z,1004.47
2023-05-25T05:26:58.226Z,1004.47
2023-05-25T05:27:54.163Z,1004.50
2023-05-25T05:28:51.904Z,1004.45
2023-05-25T05:29:51.798Z,1004.46
2023-05-25T05:30:51.798Z,1004.42
2023-05-25T05:31:52.154Z,1004.45
2023-05-25T05:32:51.770Z,1004.45
2023-05-25T05:33:51.787Z,1004.47
2023-05-25T05:34:51.639Z,1004.39
2023-05-25T05:35:51.649Z,1004.46
2023-05-25T05:36:57.900Z,1004.42
2023-05-25T05:37:53.642Z,1004.46
2023-05-25T05:38:51.955Z,1004.48
2023-05-25T05:39:51.676Z,1004.43
2023-05-25T05:40:51.702Z,1004.44
2023-05-25T05:41:51.750Z,1004.44
2023-05-25T05:42:51.866Z,1004.44
2023-05-25T05:43:51.802Z,1004.45
2023-05-25T05:44:51.826Z,1004.42
2023-05-25T05:45:51.772Z,1004.40
2023-05-25T05:46:51.688Z,1004.38
2023-05-25T05:47:51.753Z,1004.39
2023-05-25T05:48:51.730Z,1004.38
2023-05-25T05:49:51.755Z,1004.50
2023-05-25T05:50:51.675Z,1004.38
2023-05-25T05:51:51.702Z,1004.49
2023-05-25T05:52:51.719Z,1004.49
2023-05-25T05:53:51.632Z,1004.44
2023-05-25T05:54:51.637Z,1004.42
2023-05-25T05:55:53.609Z,1004.40
2023-05-25T05:56:52.557Z,1004.44
2023-05-25T05:57:51.528Z,1004.53
2023-05-25T05:58:51.450Z,1004.50
2023-05-25T05:59:51.509Z,1004.44
2023-05-25T06:00:51.683Z,1004.41
2023-05-25T06:01:51.762Z,1004.49
2023-05-25T06:02:51.677Z,1004.52
2023-05-25T06:03:51.874Z,1004.46
2023-05-25T06:04:51.633Z,1004.55
2023-05-25T06:05:51.707Z,1004.54
2023-05-25T06:06:51.578Z,1004.56
2023-05-25T06:07:51.615Z,1004.61
2023-05-25T06:08:51.570Z,1004.55
2023-05-25T06:09:51.566Z,1004.58
2023-05-25T06:10:51.617Z,1004.58
2023-05-25T06:11:51.505Z,1004.62
2023-05-25T06:12:51.445Z,1004.66
2023-05-25T06:13:51.472Z,1004.57
2023-05-25T06:14:51.507Z,1004.63
2023-05-25T06:15:51.490Z,1004.67
2023-05-25T06:16:51.597Z,1004.57
2023-05-25T06:17:51.571Z,1004.64
2023-05-25T06:18:51.403Z,1004.59
2023-05-25T06:19:52.457Z,1004.60
2023-05-25T06:20:51.392Z,1004.56
2023-05-25T06:21:51.862Z,1004.64
2023-05-25T06:22:51.566Z,1004.74
2023-05-25T06:23:51.409Z,1004.72
2023-05-25T06:24:51.404Z,1004.79
2023-05-25T06:25:51.394Z,1004.86
2023-05-25T06:26:51.352Z,1004.75
2023-05-25T06:27:51.236Z,1004.77
2023-05-25T06:28:51.263Z,1004.75
2023-05-25T06:29:51.280Z,1004.78
2023-05-25T06:30:51.295Z,1004.75
2023-05-25T06:31:51.304Z,1004.80
2023-05-25T06:32:51.310Z,1004.80
2023-05-25T06:33:51.235Z,1004.91
2023-05-25T06:34:51.411Z,1004.92
2023-05-25T06:35:51.338Z,1004.85
2023-05-25T06:36:51.204Z,1004.84
2023-05-25T06:37:51.220Z,1004.88
2023-05-25T06:38:51.195Z,1004.82
2023-05-25T06:39:51.364Z,1004.77
2023-05-25T06:40:52.328Z,1004.86
2023-05-25T06:41:51.309Z,1004.87
2023-05-25T06:42:51.366Z,1004.84
2023-05-25T06:43:51.438Z,1004.83
2023-05-25T06:44:51.302Z,1004.88
2023-05-25T06:45:51.683Z,1004.83
2023-05-25T06:46:51.328Z,1004.93
2023-05-25T06:47:51.710Z,1004.88
2023-05-25T06:48:51.243Z,1004.92
2023-05-25T06:49:51.385Z,1004.87
2023-05-25T06:50:51.199Z,1004.86
2023-05-25T06:51:51.261Z,1004.96
2023-05-25T06:52:51.300Z,1004.95
2023-05-25T06:53:51.248Z,1004.99
2023-05-25T06:54:51.525Z,1004.87
2023-05-25T06:55:51.198Z,1004.92
2023-05-25T06:56:51.165Z,1004.84
2023-05-25T06:57:51.205Z,1004.87
2023-05-25T06:58:51.771Z,1004.86
2023-05-25T06:59:51.151Z,1004.83
2023-05-25T07:00:51.296Z,1004.88
2023-05-25T07:01:51.374Z,1004.90
2023-05-25T07:02:51.286Z,1004.89
2023-05-25T07:03:51.164Z,1004.84
2023-05-25T07:04:51.174Z,1004.90
2023-05-25T07:05:51.025Z,1004.89
2023-05-25T07:06:51.122Z,1004.96
2023-05-25T07:07:51.112Z,1004.92
2023-05-25T07:08:51.073Z,1005.00
2023-05-25T07:09:51.114Z,1004.97
2023-05-25T07:10:51.072Z,1004.94
2023-05-25T07:11:50.986Z,1005.01
2023-05-25T07:12:50.946Z,1004.94
2023-05-25T07:13:51.006Z,1004.95
2023-05-25T07:14:51.065Z,1005.03
2023-05-25T07:15:51.054Z,1004.99
2023-05-25T07:16:51.080Z,1004.98
2023-05-25T07:17:51.106Z,1004.93
2023-05-25T07:18:50.977Z,1005.01
2023-05-25T07:19:51.092Z,1005.03
2023-05-25T07:20:51.069Z,1005.07
2023-05-25T07:21:51.107Z,1004.93
2023-05-25T07:22:51.025Z,1004.97
2023-05-25T07:23:50.997Z,1004.97
2023-05-25T07:24:50.936Z,1004.94
2023-05-25T07:25:52.105Z,1004.96
2023-05-25T07:26:51.126Z,1004.93
2023-05-25T07:27:51.296Z,1004.84
2023-05-25T07:28:50.969Z,1004.77
2023-05-25T07:29:50.889Z,1004.81
2023-05-25T07:30:51.069Z,1004.85
2023-05-25T07:31:52.292Z,1004.82
2023-05-25T07:32:51.027Z,1004.89
2023-05-25T07:33:50.958Z,1004.96
2023-05-25T07:34:51.041Z,1004.92
2023-05-25T07:35:51.066Z,1004.86
2023-05-25T07:36:51.971Z,1004.87
2023-05-25T07:37:50.983Z,1004.89
2023-05-25T07:38:51.036Z,1004.91
2023-05-25T07:39:51.157Z,1004.88
2023-05-25T07:40:50.889Z,1004.93
2023-05-25T07:41:50.973Z,1004.88
2023-05-25T07:42:50.932Z,1004.86
2023-05-25T07:43:50.860Z,1004.89
2023-05-25T07:44:50.951Z,1004.84
2023-05-25T07:45:50.928Z,1004.94
2023-05-25T07:46:51.150Z,1004.99
2023-05-25T07:47:51.159Z,1005.00
2023-05-25T07:48:50.881Z,1004.94
2023-05-25T07:49:50.811Z,1004.97
2023-05-25T07:50:50.818Z,1004.96
2023-05-25T07:51:50.873Z,1005.06
2023-05-25T07:52:50.816Z,1005.05
2023-05-25T07:53:50.682Z,1005.00
2023-05-25T07:54:50.749Z,1005.01
2023-05-25T07:55:50.652Z,1005.02
2023-05-25T07:56:50.608Z,1004.99
2023-05-25T07:57:50.791Z,1004.98
2023-05-25T07:58:50.658Z,1005.01
2023-05-25T07:59:50.614Z,1004.97
2023-05-25T08:00:50.648Z,1004.99
2023-05-25T08:01:50.618Z,1005.05
2023-05-25T08:02:50.765Z,1005.05
2023-05-25T08:03:50.707Z,1005.03
2023-05-25T08:04:51.099Z,1005.07
2023-05-25T08:05:50.738Z,1005.04
2023-05-25T08:06:50.694Z,1005.06
2023-05-25T08:07:50.754Z,1005.05
2023-05-25T08:08:50.636Z,1005.12
2023-05-25T08:09:50.702Z,1005.06
2023-05-25T08:10:50.633Z,1005.08
2023-05-25T08:11:50.655Z,1005.10
2023-05-25T08:12:52.283Z,1005.13
2023-05-25T08:13:50.799Z,1005.08
2023-05-25T08:14:50.705Z,1005.08
2023-05-25T08:15:50.539Z,1005.05
2023-05-25T08:16:50.769Z,1005.08
2023-05-25T08:17:50.802Z,1005.14
2023-05-25T08:18:50.735Z,1005.06
2023-05-25T08:19:50.657Z,1005.08
2023-05-25T08:20:50.881Z,1005.07
2023-05-25T08:21:50.679Z,1005.11
2023-05-25T08:22:50.541Z,1005.16
2023-05-25T08:23:50.736Z,1005.09
2023-05-25T08:24:50.542Z,1005.20
2023-05-25T08:25:50.634Z,1005.14
2023-05-25T08:26:54.971Z,1005.13
2023-05-25T08:27:51.629Z,1005.16
2023-05-25T08:28:50.498Z,1005.20
2023-05-25T08:29:50.640Z,1005.11
2023-05-25T08:30:50.515Z,1005.14
2023-05-25T08:31:50.511Z,1005.19
2023-05-25T08:32:50.563Z,1005.19
2023-05-25T08:33:50.474Z,1005.23
2023-05-25T08:34:50.809Z,1005.17
2023-05-25T08:35:50.367Z,1005.27
2023-05-25T08:36:50.447Z,1005.25
2023-05-25T08:37:50.364Z,1005.17
2023-05-25T08:38:50.347Z,1005.19
2023-05-25T08:39:50.496Z,1005.10
2023-05-25T08:40:50.741Z,1005.14
2023-05-25T08:41:50.844Z,1005.14
2023-05-25T08:42:50.377Z,1005.11
2023-05-25T08:43:50.326Z,1005.16
2023-05-25T08:44:50.356Z,1005.08
2023-05-25T08:45:50.606Z,1005.10
2023-05-25T08:46:50.572Z,1005.12
2023-05-25T08:47:50.551Z,1005.06
2023-05-25T08:48:50.654Z,1005.07
2023-05-25T08:49:50.866Z,1005.08
2023-05-25T08:50:50.404Z,1005.09
2023-05-25T08:51:50.435Z,1005.07
2023-05-25T08:52:50.522Z,1005.08
2023-05-25T08:53:50.415Z,1004.98
2023-05-25T08:54:50.359Z,1005.06
2023-05-25T08:55:50.502Z,1005.06
2023-05-25T08:56:50.354Z,1005.06
2023-05-25T08:57:50.370Z,1004.98
2023-05-25T08:58:50.667Z,1005.06
2023-05-25T08:59:50.435Z,1005.09
2023-05-25T09:00:50.426Z,1004.99
2023-05-25T09:01:50.521Z,1005.08
2023-05-25T09:02:50.580Z,1004.97
2023-05-25T09:03:50.424Z,1004.92
2023-05-25T09:04:51.324Z,1004.94
2023-05-25T09:05:50.421Z,1005.00
2023-05-25T09:07:05.781Z,1005.02
2023-05-25T09:07:52.541Z,1004.95
2023-05-25T09:08:50.688Z,1004.97
2023-05-25T09:09:50.129Z,1004.90
2023-05-25T09:10:50.133Z,1004.98
2023-05-25T09:11:50.200Z,1004.91
2023-05-25T09:12:50.168Z,1005.02
2023-05-25T09:13:50.749Z,1005.06
2023-05-25T09:14:50.168Z,1004.99
2023-05-25T09:15:50.277Z,1004.99
2023-05-25T09:16:50.287Z,1005.01
2023-05-25T09:17:50.233Z,1005.08
2023-05-25T09:18:50.254Z,1004.99
2023-05-25T09:19:50.243Z,1004.99
2023-05-25T09:20:50.482Z,1005.02
2023-05-25T09:21:52.963Z,1005.02
2023-05-25T09:22:51.129Z,1005.05
2023-05-25T09:23:50.201Z,1005.00
2023-05-25T09:24:50.283Z,1004.97
2023-05-25T09:25:51.560Z,1005.06
2023-05-25T09:26:50.250Z,1005.08
2023-05-25T09:27:50.221Z,1005.05
2023-05-25T09:28:50.296Z,1004.97
2023-05-25T09:29:50.046Z,1005.07
2023-05-25T09:30:50.219Z,1005.01
2023-05-25T09:31:50.174Z,1005.06
2023-05-25T09:32:50.212Z,1005.11
2023-05-25T09:33:50.298Z,1005.10
2023-05-25T09:34:50.117Z,1005.03
2023-05-25T09:35:50.173Z,1005.01
2023-05-25T09:36:50.319Z,1005.08
2023-05-25T09:37:50.463Z,1005.05
2023-05-25T09:38:50.565Z,1005.07
2023-05-25T09:39:50.155Z,1005.09
2023-05-25T09:40:50.068Z,1005.10
2023-05-25T09:41:50.027Z,1005.14
2023-05-25T09:42:49.991Z,1005.12
2023-05-25T09:44:50.961Z,1005.17
2023-05-25T09:45:49.949Z,1005.12
2023-05-25T09:46:49.916Z,1005.12
2023-05-25T09:47:49.997Z,1005.10
2023-05-25T09:48:49.938Z,1005.04
2023-05-25T09:49:50.059Z,1005.16
2023-05-25T09:50:50.385Z,1005.13
2023-05-25T09:51:50.993Z,1005.10
2023-05-25T09:52:49.983Z,1005.07
2023-05-25T09:53:50.205Z,1005.10
2023-05-25T09:54:50.143Z,1005.13
2023-05-25T09:55:53.899Z,1005.15
2023-05-25T09:56:51.005Z,1005.15
2023-05-25T09:57:50.002Z,1005.14
2023-05-25T09:58:49.954Z,1005.08
2023-05-25T09:59:50.313Z,1005.16
2023-05-25T10:00:49.897Z,1005.14
2023-05-25T10:01:49.939Z,1005.12
2023-05-25T10:02:49.987Z,1005.10
2023-05-25T10:04:02.837Z,1005.12
2023-05-25T10:04:52.122Z,1005.02
2023-05-25T10:05:49.974Z,1005.03
2023-05-25T10:06:50.066Z,1005.10
2023-05-25T10:07:49.881Z,1005.08
2023-05-25T10:08:50.004Z,1005.06
2023-05-25T10:09:49.945Z,1005.05
2023-05-25T10:10:50.445Z,1005.05
2023-05-25T10:11:49.956Z,1005.08
2023-05-25T10:12:49.741Z,1005.04
2023-05-25T10:13:49.746Z,1005.17
2023-05-25T10:14:49.748Z,1005.15
2023-05-25T10:15:49.826Z,1005.10
2023-05-25T10:16:49.721Z,1005.17
2023-05-25T10:17:49.780Z,1005.09
2023-05-25T10:18:49.703Z,1005.14
2023-05-25T10:19:49.719Z,1005.11
2023-05-25T10:20:49.925Z,1005.18
2023-05-25T10:21:49.712Z,1005.10
2023-05-25T10:22:49.709Z,1005.16
2023-05-25T10:23:50.706Z,1005.12
2023-05-25T10:24:49.702Z,1005.10
2023-05-25T10:25:49.788Z,1005.12
2023-05-25T10:26:50.177Z,1005.20
2023-05-25T10:27:50.741Z,1005.13
2023-05-25T10:28:49.693Z,1005.17
2023-05-25T10:29:49.881Z,1005.15
2023-05-25T10:30:49.753Z,1005.11
2023-05-25T10:31:49.927Z,1005.21
2023-05-25T10:32:50.093Z,1005.17
2023-05-25T10:33:52.172Z,1005.18
2023-05-25T10:34:49.869Z,1005.16
2023-05-25T10:36:02.320Z,1005.09
2023-05-25T10:36:51.694Z,1005.09
2023-05-25T10:37:49.752Z,1005.10
2023-05-25T10:38:49.668Z,1005.17
2023-05-25T10:39:49.840Z,1005.17
2023-05-25T10:40:49.770Z,1005.21
2023-05-25T10:41:49.776Z,1005.21
2023-05-25T10:42:50.888Z,1005.21
2023-05-25T10:43:50.706Z,1005.14
2023-05-25T10:44:50.975Z,1005.16
2023-05-25T10:45:49.685Z,1005.13
2023-05-25T10:46:49.711Z,1005.14
2023-05-25T10:47:49.613Z,1005.10
2023-05-25T10:48:49.507Z,1005.05
2023-05-25T10:49:49.499Z,1005.06
2023-05-25T10:50:49.634Z,1005.09
2023-05-25T10:51:49.504Z,1005.02
2023-05-25T10:52:49.697Z,1005.02
2023-05-25T10:53:49.511Z,1005.07
2023-05-25T10:54:49.650Z,1005.03
2023-05-25T10:55:49.584Z,1005.09
2023-05-25T10:56:49.593Z,1005.03
2023-05-25T10:57:49.668Z,1005.05
2023-05-25T10:58:49.923Z,1005.04
2023-05-25T10:59:49.513Z,1005.01
2023-05-25T11:00:49.686Z,1005.05
2023-05-25T11:01:49.636Z,1005.00
2023-05-25T11:02:49.665Z,1005.07
2023-05-25T11:03:49.617Z,1005.02
2023-05-25T11:04:49.603Z,1005.09
2023-05-25T11:05:49.454Z,1005.08
2023-05-25T11:06:49.480Z,1005.09
2023-05-25T11:07:49.527Z,1004.97
2023-05-25T11:08:49.545Z,1005.07
2023-05-25T11:09:49.938Z,1005.06
2023-05-25T11:10:49.581Z,1005.04
2023-05-25T11:11:49.595Z,1005.11
2023-05-25T11:12:49.604Z,1005.03
2023-05-25T11:13:49.550Z,1004.98
2023-05-25T11:14:49.477Z,1005.01
2023-05-25T11:15:49.356Z,1004.97
2023-05-25T11:16:49.406Z,1005.03
2023-05-25T11:17:49.348Z,1005.02
2023-05-25T11:18:49.304Z,1005.00
2023-05-25T11:19:51.163Z,1005.05
2023-05-25T11:20:50.459Z,1005.09
2023-05-25T11:21:49.337Z,1004.92
2023-05-25T11:22:52.288Z,1005.03
2023-05-25T11:23:50.360Z,1004.98
2023-05-25T11:24:49.466Z,1005.00
2023-05-25T11:25:49.544Z,1004.99
2023-05-25T11:26:50.385Z,1004.92
2023-05-25T11:27:49.390Z,1004.91
2023-05-25T11:28:49.749Z,1004.94
2023-05-25T11:29:49.629Z,1005.00
2023-05-25T11:30:49.630Z,1004.87
2023-05-25T11:31:49.455Z,1004.94
2023-05-25T11:32:49.448Z,1004.92
2023-05-25T11:33:49.318Z,1004.88
2023-05-25T11:34:49.224Z,1004.96
2023-05-25T11:35:49.866Z,1004.92
2023-05-25T11:36:49.337Z,1004.89
2023-05-25T11:37:49.385Z,1004.91
2023-05-25T11:39:02.540Z,1004.92
2023-05-25T11:39:51.227Z,1004.85
2023-05-25T11:40:49.395Z,1004.91
2023-05-25T11:41:49.164Z,1004.94
2023-05-25T11:42:49.170Z,1004.91
2023-05-25T11:43:49.096Z,1004.88
2023-05-25T11:44:49.197Z,1004.94
2023-05-25T11:45:49.322Z,1004.88
2023-05-25T11:46:49.315Z,1004.85
2023-05-25T11:47:49.277Z,1004.80
2023-05-25T11:48:49.122Z,1004.87
2023-05-25T11:49:49.146Z,1004.84
2023-05-25T11:50:49.233Z,1004.83
2023-05-25T11:51:49.143Z,1004.78
2023-05-25T11:52:49.431Z,1004.78
2023-05-25T11:53:49.122Z,1004.79
2023-05-25T11:54:49.474Z,1004.79
2023-05-25T11:55:50.842Z,1004.78
2023-05-25T11:56:49.153Z,1004.77
2023-05-25T11:57:49.099Z,1004.80
2023-05-25T11:58:49.088Z,1004.71
2023-05-25T11:59:49.080Z,1004.77
2023-05-25T12:00:49.069Z,1004.74
2023-05-25T12:01:49.211Z,1004.74
2023-05-25T12:02:49.221Z,1004.80
2023-05-25T12:03:49.255Z,1004.77
2023-05-25T12:04:49.188Z,1004.75
2023-05-25T12:05:49.162Z,1004.76
2023-05-25T12:06:49.167Z,1004.79